createdAt,value
2023-05-08T00:00:21.497Z,60.53
2023-05-08T00:03:43.484Z,60.49
2023-05-08T00:06:45.971Z,60.55
2023-05-08T00:09:47.551Z,60.52
2023-05-08T00:12:49.330Z,60.47
2023-05-08T00:15:51.037Z,60.44
2023-05-08T00:18:53.599Z,60.42
2023-05-08T00:21:55.321Z,60.38
2023-05-08T00:24:56.988Z,60.33
2023-05-08T00:27:59.912Z,60.25
2023-05-08T00:31:02.009Z,60.31
2023-05-08T00:34:03.834Z,60.24
2023-05-08T00:37:05.618Z,60.25
2023-05-08T00:40:09.321Z,59.98
2023-05-08T00:43:11.080Z,60.05
2023-05-08T00:46:13.105Z,59.94
2023-05-08T00:49:15.625Z,59.83
2023-05-08T00:52:18.724Z,59.87
2023-05-08T00:55:20.684Z,59.74
2023-05-08T00:58:25.268Z,59.76
2023-05-08T01:01:27.036Z,59.75
2023-05-08T01:04:30.016Z,59.88
2023-05-08T01:07:32.191Z,59.86
2023-05-08T01:10:45.992Z,59.96
2023-05-08T01:13:50.836Z,59.98
2023-05-08T01:17:14.083Z,59.83
2023-05-08T01:20:31.566Z,59.67
2023-05-08T01:24:10.560Z,59.67
2023-05-08T01:27:33.851Z,59.68
2023-05-08T01:30:41.595Z,59.96
2023-05-08T01:33:56.729Z,59.99
2023-05-08T01:37:06.125Z,60.14
2023-05-08T01:40:17.531Z,60.22
2023-05-08T01:43:25.224Z,60.30
2023-05-08T01:46:31.663Z,60.36
2023-05-08T01:49:39.508Z,60.48
2023-05-08T01:52:48.469Z,60.64
2023-05-08T01:55:54.018Z,60.75
2023-05-08T01:58:58.553Z,60.70
2023-05-08T02:02:02.161Z,60.81
2023-05-08T02:05:06.206Z,60.80
2023-05-08T02:08:10.667Z,60.79
2023-05-08T02:11:14.381Z,60.87
2023-05-08T02:14:19.017Z,60.87
2023-05-08T02:17:24.058Z,60.89
2023-05-08T02:20:27.228Z,60.95
2023-05-08T02:23:30.674Z,60.91
2023-05-08T02:26:34.392Z,60.81
2023-05-08T02:29:37.180Z,60.79
2023-05-08T02:32:41.933Z,60.66
2023-05-08T02:35:45.642Z,60.36
2023-05-08T02:38:52.194Z,60.27
2023-05-08T02:41:54.078Z,60.20
2023-05-08T02:44:56.069Z,60.16
2023-05-08T02:48:11.579Z,60.23
2023-05-08T02:51:13.260Z,60.09
2023-05-08T02:54:28.667Z,59.98
2023-05-08T02:57:46.222Z,59.86
2023-05-08T03:01:05.866Z,59.68
2023-05-08T03:04:10.296Z,59.75
2023-05-08T03:07:12.443Z,59.81
2023-05-08T03:10:16.080Z,59.89
2023-05-08T03:13:20.200Z,59.91
2023-05-08T03:16:25.002Z,59.77
2023-05-08T03:19:32.977Z,59.77
2023-05-08T03:22:38.053Z,59.62
2023-05-08T03:25:41.410Z,59.60
2023-05-08T03:28:43.992Z,59.53
2023-05-08T03:31:46.716Z,59.49
2023-05-08T03:34:50.207Z,59.55
2023-05-08T03:37:53.117Z,59.54
2023-05-08T03:40:55.044Z,59.52
2023-05-08T03:43:58.102Z,59.56
2023-05-08T03:47:01.877Z,59.50
2023-05-08T03:50:04.502Z,59.51
2023-05-08T03:53:07.465Z,59.51
2023-05-08T03:56:09.471Z,59.38
2023-05-08T03:59:21.676Z,59.36
2023-05-08T04:02:42.144Z,59.32
2023-05-08T04:05:57.154Z,59.48
2023-05-08T04:09:07.893Z,59.41
2023-05-08T04:12:21.269Z,59.42
2023-05-08T04:15:29.309Z,59.44
2023-05-08T04:18:36.056Z,59.48
2023-05-08T04:21:42.358Z,59.43
2023-05-08T04:24:48.583Z,59.36
2023-05-08T04:27:52.565Z,59.40
2023-05-08T04:30:56.378Z,59.33
2023-05-08T04:33:58.618Z,59.26
2023-05-08T04:37:00.476Z,59.26
2023-05-08T04:40:04.338Z,59.26
2023-05-08T04:43:06.618Z,59.27
2023-05-08T04:46:08.568Z,59.36
2023-05-08T04:49:11.297Z,59.41
2023-05-08T04:52:13.052Z,59.45
2023-05-08T04:55:15.145Z,59.53
2023-05-08T04:58:17.048Z,59.49
2023-05-08T05:01:18.841Z,59.52
2023-05-08T05:04:21.627Z,59.78
2023-05-08T05:07:23.619Z,59.63
2023-05-08T05:10:25.459Z,59.56
2023-05-08T05:13:27.555Z,59.45
2023-05-08T05:16:29.855Z,59.58
2023-05-08T05:19:31.867Z,59.64
2023-05-08T05:22:34.153Z,59.67
2023-05-08T05:25:36.058Z,59.70
2023-05-08T05:28:37.839Z,59.70
2023-05-08T05:31:40.866Z,59.59
2023-05-08T05:34:42.703Z,59.52
2023-05-08T05:37:44.729Z,59.33
2023-05-08T05:40:46.778Z,59.27
2023-05-08T05:43:48.638Z,59.26
2023-05-08T05:46:50.492Z,59.28
2023-05-08T05:49:52.339Z,59.18
2023-05-08T05:52:54.562Z,59.21
2023-05-08T05:55:56.384Z,59.35
2023-05-08T05:58:58.124Z,59.30
2023-05-08T06:02:00.786Z,59.26
2023-05-08T06:05:04.263Z,59.10
2023-05-08T06:08:07.862Z,58.98
2023-05-08T06:11:09.588Z,58.85
2023-05-08T06:14:11.317Z,58.84
2023-05-08T06:17:13.627Z,58.86
2023-05-08T06:20:15.694Z,58.99
2023-05-08T06:23:17.405Z,59.02
2023-05-08T06:26:20.137Z,59.06
2023-05-08T06:29:22.679Z,58.87
2023-05-08T06:32:24.465Z,58.82
2023-05-08T06:35:26.272Z,58.89
2023-05-08T06:38:28.021Z,58.81
2023-05-08T06:41:29.802Z,58.72
2023-05-08T06:44:32.402Z,58.65
2023-05-08T06:47:34.099Z,58.68
2023-05-08T06:50:40.129Z,58.70
2023-05-08T06:53:42.187Z,58.76
2023-05-08T06:56:44.304Z,58.85
2023-05-08T06:59:45.966Z,58.75
2023-05-08T07:02:47.803Z,58.81
2023-05-08T07:05:49.537Z,58.79
2023-05-08T07:08:51.186Z,58.77
2023-05-08T07:11:53.092Z,58.78
2023-05-08T07:14:55.888Z,58.81
2023-05-08T07:17:59.274Z,58.53
2023-05-08T07:21:00.964Z,58.45
2023-05-08T07:24:02.697Z,58.39
2023-05-08T07:27:04.425Z,58.34
2023-05-08T07:30:09.440Z,58.38
2023-05-08T07:33:14.138Z,58.58
2023-05-08T07:36:16.243Z,58.58
2023-05-08T07:39:19.368Z,58.61
2023-05-08T07:42:21.927Z,58.46
2023-05-08T07:45:23.757Z,58.21
2023-05-08T07:48:25.677Z,57.93
2023-05-08T07:51:27.472Z,57.80
2023-05-08T07:54:29.185Z,57.73
2023-05-08T07:57:38.309Z,57.72
2023-05-08T08:00:40.347Z,57.57
2023-05-08T08:03:42.217Z,57.54
2023-05-08T08:06:44.116Z,57.28
2023-05-08T08:09:46.423Z,57.35
2023-05-08T08:12:48.250Z,57.21
2023-05-08T08:15:51.367Z,57.20
2023-05-08T08:18:53.219Z,57.26
2023-05-08T08:21:55.025Z,57.10
2023-05-08T08:24:57.059Z,56.95
2023-05-08T08:27:59.518Z,56.93
2023-05-08T08:31:01.312Z,56.98
2023-05-08T08:34:03.750Z,56.74
2023-05-08T08:37:06.316Z,56.55
2023-05-08T08:40:08.524Z,56.56
2023-05-08T08:43:10.581Z,56.44
2023-05-08T08:46:14.692Z,56.20
2023-05-08T08:49:31.517Z,56.34
2023-05-08T08:52:46.957Z,56.32
2023-05-08T08:55:51.854Z,56.36
2023-05-08T08:58:58.567Z,56.06
2023-05-08T09:02:06.529Z,55.67
2023-05-08T09:05:09.344Z,55.66
2023-05-08T09:08:12.297Z,55.39
2023-05-08T09:11:14.421Z,54.95
2023-05-08T09:14:16.426Z,54.96
2023-05-08T09:17:18.425Z,54.81
2023-05-08T09:20:21.040Z,54.43
2023-05-08T09:23:23.425Z,54.00
2023-05-08T09:26:29.168Z,53.85
2023-05-08T09:29:31.160Z,53.46
2023-05-08T09:39:25.450Z,53.07
2023-05-08T09:42:38.910Z,52.72
2023-05-08T09:45:42.846Z,52.40
2023-05-08T09:48:46.183Z,51.81
2023-05-08T09:51:56.092Z,51.58
2023-05-08T09:55:06.456Z,51.41
2023-05-08T09:58:10.038Z,50.98
2023-05-08T10:01:36.241Z,50.86
2023-05-08T10:04:39.757Z,50.68
2023-05-08T10:07:43.120Z,50.12
2023-05-08T10:10:49.215Z,49.84
2023-05-08T10:13:52.584Z,49.76
2023-05-08T10:16:58.152Z,49.59
2023-05-08T10:20:07.820Z,49.25
2023-05-08T10:23:17.318Z,49.37
2023-05-08T10:26:27.701Z,49.09
2023-05-08T10:29:42.160Z,48.53
2023-05-08T10:32:49.728Z,48.59
2023-05-08T10:35:53.542Z,48.52
2023-05-08T10:38:59.075Z,48.27
2023-05-08T10:42:03.169Z,48.13
2023-05-08T10:45:07.725Z,48.43
2023-05-08T10:48:26.831Z,48.11
2023-05-08T10:51:37.580Z,47.67
2023-05-08T10:55:20.580Z,47.00
2023-05-08T10:58:24.396Z,46.89
2023-05-08T11:01:28.599Z,47.21
2023-05-08T11:04:32.591Z,47.86
2023-05-08T11:07:58.161Z,47.27
2023-05-08T11:11:02.175Z,47.24
2023-05-08T11:14:08.686Z,47.00
2023-05-08T11:17:12.085Z,47.08
2023-05-08T11:20:15.747Z,46.70
2023-05-08T11:23:27.489Z,46.66
2023-05-08T11:26:43.216Z,46.26
2023-05-08T11:30:24.911Z,45.78
2023-05-08T11:33:33.192Z,45.12
2023-05-08T11:36:37.008Z,45.05
2023-05-08T11:39:40.568Z,45.18
2023-05-08T11:42:43.822Z,44.93
2023-05-08T11:45:47.362Z,44.99
2023-05-08T11:49:01.554Z,45.25
2023-05-08T11:52:06.468Z,44.77
2023-05-08T11:55:12.286Z,44.28
2023-05-08T11:58:16.624Z,44.45
2023-05-08T12:01:21.041Z,44.29
2023-05-08T12:04:24.391Z,44.05
2023-05-08T12:07:28.005Z,43.82
2023-05-08T12:10:31.665Z,43.94
2023-05-08T12:13:35.165Z,43.69
2023-05-08T12:16:40.668Z,43.81
2023-05-08T12:19:44.094Z,43.14
2023-05-08T12:22:52.559Z,42.78
2023-05-08T12:25:59.654Z,42.64
2023-05-08T12:29:05.476Z,42.95
2023-05-08T12:32:08.911Z,43.45
2023-05-08T12:35:14.616Z,43.54
2023-05-08T12:38:18.008Z,43.36
2023-05-08T12:41:24.686Z,43.40
2023-05-08T12:44:28.422Z,43.25
2023-05-08T12:47:31.871Z,43.39
2023-05-08T12:50:40.700Z,42.78
2023-05-08T12:53:46.495Z,42.83
2023-05-08T12:56:50.738Z,42.71
2023-05-08T13:00:04.996Z,42.56
2023-05-08T13:03:10.034Z,42.37
2023-05-08T13:06:21.529Z,42.66
2023-05-08T13:09:24.927Z,42.63
2023-05-08T13:12:28.333Z,42.47
2023-05-08T13:15:31.618Z,42.43
2023-05-08T13:18:37.947Z,42.34
2023-05-08T13:21:41.640Z,42.22
2023-05-08T13:24:45.263Z,42.05
2023-05-08T13:27:48.646Z,41.71
2023-05-08T13:30:51.941Z,41.77
2023-05-08T13:33:55.253Z,41.63
2023-05-08T13:36:58.854Z,41.69
2023-05-08T13:40:02.561Z,41.43
2023-05-08T13:43:05.968Z,41.27
2023-05-08T13:46:09.477Z,41.03
2023-05-08T13:49:13.046Z,40.86
2023-05-08T13:52:17.069Z,41.03
2023-05-08T13:55:22.306Z,41.12
2023-05-08T13:58:25.695Z,40.98
2023-05-08T14:01:29.042Z,41.20
2023-05-08T14:04:32.440Z,41.52
2023-05-08T14:07:36.325Z,41.60
2023-05-08T14:10:40.853Z,41.40
2023-05-08T14:13:44.234Z,41.46
2023-05-08T14:16:48.630Z,41.62
2023-05-08T14:19:51.986Z,41.78
2023-05-08T14:22:59.582Z,41.64
2023-05-08T14:26:03.510Z,41.18
2023-05-08T14:29:06.722Z,41.21
2023-05-08T14:32:11.175Z,41.45
2023-05-08T14:35:14.757Z,41.79
2023-05-08T14:38:18.317Z,41.60
2023-05-08T14:41:22.085Z,41.23
2023-05-08T14:44:25.303Z,41.40
2023-05-08T14:47:28.664Z,41.39
2023-05-08T14:50:31.923Z,41.47
2023-05-08T14:53:35.297Z,41.32
2023-05-08T14:56:47.274Z,41.21
2023-05-08T15:03:14.355Z,41.66
2023-05-08T15:06:17.622Z,41.66
2023-05-08T15:09:20.869Z,41.55
2023-05-08T15:12:24.124Z,41.49
2023-05-08T15:15:27.513Z,41.33
2023-05-08T15:18:30.787Z,41.58
2023-05-08T15:21:34.561Z,41.82
2023-05-08T15:24:37.845Z,41.87
2023-05-08T15:27:41.850Z,41.58
2023-05-08T15:30:48.476Z,41.63
2023-05-08T15:33:51.851Z,41.76
2023-05-08T15:36:55.060Z,41.68
2023-05-08T15:39:58.242Z,41.80
2023-05-08T15:43:01.730Z,41.74
2023-05-08T15:46:05.325Z,41.50
2023-05-08T15:49:08.613Z,41.68
2023-05-08T15:52:11.954Z,41.74
2023-05-08T15:55:15.500Z,41.73
2023-05-08T15:58:18.966Z,41.61
2023-05-08T16:01:22.192Z,41.65
2023-05-08T16:04:25.596Z,41.71
2023-05-08T16:07:29.029Z,41.77
2023-05-08T16:10:32.238Z,41.65
2023-05-08T16:13:35.567Z,41.62
2023-05-08T16:16:39.486Z,41.65
2023-05-08T16:19:42.907Z,41.74
2023-05-08T16:22:46.476Z,41.60
2023-05-08T16:25:49.856Z,41.55
2023-05-08T16:28:53.263Z,41.78
2023-05-08T16:31:56.668Z,41.85
2023-05-08T16:35:00.111Z,41.86
2023-05-08T16:38:05.023Z,41.99
2023-05-08T16:41:10.244Z,42.07
2023-05-08T16:44:13.635Z,42.12
2023-05-08T16:47:17.306Z,42.18
2023-05-08T16:50:20.884Z,42.26
2023-05-08T16:53:27.083Z,42.09
2023-05-08T16:56:30.243Z,42.18
2023-05-08T16:59:33.556Z,42.18
2023-05-08T17:02:37.018Z,42.21
2023-05-08T17:05:40.973Z,42.38
2023-05-08T17:08:43.998Z,42.50
2023-05-08T17:11:47.047Z,42.77
2023-05-08T17:14:50.012Z,42.76
2023-05-08T17:17:53.197Z,42.93
2023-05-08T17:20:56.164Z,42.91
2023-05-08T17:24:00.757Z,42.73
2023-05-08T17:27:07.735Z,42.92
2023-05-08T17:30:12.241Z,42.88
2023-05-08T17:33:15.596Z,42.87
2023-05-08T17:36:18.554Z,42.79
2023-05-08T17:39:22.023Z,43.01
2023-05-08T17:42:25.004Z,43.01
2023-05-08T17:45:28.227Z,43.18
2023-05-08T17:48:31.412Z,43.08
2023-05-08T17:51:34.531Z,43.30
2023-05-08T17:54:37.655Z,43.37
2023-05-08T17:57:40.717Z,43.49
2023-05-08T18:00:43.929Z,43.76
2023-05-08T18:03:49.951Z,43.97
2023-05-08T18:06:53.023Z,44.13
2023-05-08T18:09:56.296Z,44.43
2023-05-08T18:12:59.356Z,44.53
2023-05-08T18:16:02.518Z,44.73
2023-05-08T18:19:05.610Z,44.83
2023-05-08T18:22:08.640Z,45.17
2023-05-08T18:25:12.183Z,45.70
2023-05-08T18:28:15.180Z,45.72
2023-05-08T18:31:18.237Z,45.90
2023-05-08T18:34:21.256Z,46.11
2023-05-08T18:37:24.351Z,46.29
2023-05-08T18:40:27.345Z,46.43
2023-05-08T18:43:30.628Z,46.54
2023-05-08T18:46:33.658Z,46.82
2023-05-08T18:49:36.747Z,46.97
2023-05-08T18:52:40.745Z,47.09
2023-05-08T18:55:43.876Z,47.32
2023-05-08T18:58:47.628Z,47.54
2023-05-08T19:01:51.225Z,47.51
2023-05-08T19:04:54.538Z,47.71
2023-05-08T19:07:58.001Z,47.75
2023-05-08T19:11:01.015Z,48.00
2023-05-08T19:14:04.093Z,48.01
2023-05-08T19:17:07.175Z,48.41
2023-05-08T19:20:11.027Z,48.49
2023-05-08T19:23:14.074Z,48.61
2023-05-08T19:26:18.119Z,48.75
2023-05-08T19:29:21.100Z,48.75
2023-05-08T19:32:25.838Z,48.99
2023-05-08T19:35:29.157Z,48.85
2023-05-08T19:38:32.125Z,48.90
2023-05-08T19:41:35.572Z,48.99
2023-05-08T19:44:39.130Z,49.29
2023-05-08T19:47:42.640Z,49.24
2023-05-08T19:50:45.901Z,49.24
2023-05-08T19:53:48.922Z,49.44
2023-05-08T19:56:51.965Z,49.68
2023-05-08T19:59:56.043Z,49.72
2023-05-08T20:02:59.146Z,49.80
2023-05-08T20:06:02.276Z,49.80
2023-05-08T20:09:06.355Z,50.09
2023-05-08T20:12:09.436Z,50.25
2023-05-08T20:15:12.698Z,50.51
2023-05-08T20:18:16.128Z,50.33
2023-05-08T20:21:19.237Z,50.38
2023-05-08T20:24:22.279Z,50.46
2023-05-08T20:27:25.315Z,50.66
2023-05-08T20:30:28.439Z,50.81
2023-05-08T20:33:31.472Z,50.85
2023-05-08T20:36:34.611Z,50.97
2023-05-08T20:39:37.576Z,51.06
2023-05-08T20:42:41.449Z,51.14
2023-05-08T20:45:44.727Z,51.28
2023-05-08T20:48:47.830Z,51.37
2023-05-08T20:51:50.783Z,51.39
2023-05-08T20:54:53.809Z,51.60
2023-05-08T20:57:56.935Z,51.71
2023-05-08T21:01:00.024Z,51.72
2023-05-08T21:04:03.096Z,51.81
2023-05-08T21:07:06.270Z,51.82
2023-05-08T21:10:09.624Z,51.94
2023-05-08T21:13:12.651Z,51.87
2023-05-08T21:16:15.774Z,51.97
2023-05-08T21:19:18.783Z,52.12
2023-05-08T21:22:21.772Z,52.09
2023-05-08T21:25:24.901Z,52.08
2023-05-08T21:28:27.890Z,52.21
2023-05-08T21:31:37.014Z,52.28
2023-05-08T21:34:41.512Z,52.36
2023-05-08T21:37:44.541Z,52.35
2023-05-08T21:40:47.576Z,52.39
2023-05-08T21:43:50.727Z,52.49
2023-05-08T21:46:53.809Z,52.62
2023-05-08T21:49:57.425Z,52.67
2023-05-08T21:53:00.389Z,52.83
2023-05-08T21:56:03.512Z,52.86
2023-05-08T21:59:07.668Z,52.97
2023-05-08T22:02:11.229Z,53.02
2023-05-08T22:05:14.692Z,53.07
2023-05-08T22:08:18.277Z,53.19
2023-05-08T22:11:22.389Z,53.28
2023-05-08T22:14:25.578Z,53.31
2023-05-08T22:17:28.878Z,53.45
2023-05-08T22:20:32.183Z,53.44
2023-05-08T22:23:35.758Z,53.61
2023-05-08T22:26:38.978Z,53.55
2023-05-08T22:29:42.083Z,53.67
2023-05-08T22:32:54.428Z,53.69
2023-05-08T22:35:58.316Z,53.74
2023-05-08T22:39:01.699Z,53.82
2023-05-08T22:42:05.409Z,53.82
2023-05-08T22:45:57.777Z,53.81
2023-05-08T22:49:11.551Z,53.93
2023-05-08T22:52:14.860Z,53.91
2023-05-08T22:55:18.183Z,53.89
2023-05-08T22:58:21.483Z,53.92
2023-05-08T23:01:24.877Z,53.96
2023-05-08T23:04:28.196Z,54.08
2023-05-08T23:07:31.499Z,54.09
2023-05-08T23:10:34.731Z,54.01
2023-05-08T23:13:38.019Z,54.11
2023-05-08T23:16:41.398Z,54.07
2023-05-08T23:19:45.691Z,54.08
2023-05-08T23:22:48.905Z,54.07
2023-05-08T23:25:52.291Z,54.10
2023-05-08T23:28:55.332Z,54.10
2023-05-08T23:31:58.391Z,54.18
2023-05-08T23:35:01.654Z,54.07
2023-05-08T23:38:04.708Z,54.21
2023-05-08T23:41:08.006Z,54.21
2023-05-08T23:44:11.033Z,54.29
2023-05-08T23:47:13.976Z,54.36
2023-05-08T23:50:17.244Z,54.40
2023-05-08T23:53:20.734Z,54.43
2023-05-08T23:56:23.852Z,54.42
2023-05-08T23:59:26.813Z,54.38
